createdAt,value
2018-08-25T00:00:18.120Z,11.70
2018-08-25T00:02:46.280Z,12.63
2018-08-25T00:05:14.433Z,12.77
2018-08-25T00:07:42.709Z,12.03
2018-08-25T00:10:10.937Z,12.23
2018-08-25T00:12:39.147Z,14.00
2018-08-25T00:15:07.593Z,11.40
2018-08-25T00:17:35.781Z,12.93
2018-08-25T00:20:03.974Z,12.60
2018-08-25T00:22:32.900Z,13.17
2018-08-25T00:25:01.052Z,13.53
2018-08-25T00:27:29.241Z,14.00
2018-08-25T00:29:57.712Z,13.47
2018-08-25T00:32:25.882Z,12.03
2018-08-25T00:34:54.054Z,13.43
2018-08-25T00:37:22.250Z,11.77
2018-08-25T00:39:50.405Z,12.50
2018-08-25T00:42:18.594Z,12.53
2018-08-25T00:44:46.768Z,13.10
2018-08-25T00:47:15.256Z,11.80
2018-08-25T00:49:43.428Z,13.13
2018-08-25T00:52:11.597Z,12.73
2018-08-25T00:54:40.128Z,13.27
2018-08-25T00:57:08.304Z,12.80
2018-08-25T00:59:36.711Z,12.67
2018-08-25T01:02:04.956Z,12.67
2018-08-25T01:04:33.138Z,12.60
2018-08-25T01:07:01.357Z,12.07
2018-08-25T01:09:29.631Z,12.77
2018-08-25T01:11:57.819Z,12.40
2018-08-25T01:14:26.076Z,12.87
2018-08-25T01:16:54.239Z,12.10
2018-08-25T01:19:22.386Z,11.50
2018-08-25T01:21:50.575Z,12.07
2018-08-25T01:24:18.727Z,12.43
2018-08-25T01:26:46.897Z,11.80
2018-08-25T01:29:15.363Z,12.93
2018-08-25T01:31:43.534Z,12.77
2018-08-25T01:34:11.708Z,13.73
2018-08-25T01:36:39.872Z,12.70
2018-08-25T01:39:09.044Z,14.23
2018-08-25T01:41:37.420Z,15.20
2018-08-25T01:44:12.299Z,13.93
2018-08-25T01:46:40.456Z,14.60
2018-08-25T01:49:08.661Z,13.80
2018-08-25T01:51:36.834Z,13.07
2018-08-25T01:54:05.356Z,14.47
2018-08-25T01:56:33.491Z,13.93
2018-08-25T01:59:01.689Z,15.77
2018-08-25T02:01:29.849Z,14.60
2018-08-25T02:03:58.017Z,14.00
2018-08-25T02:06:26.177Z,14.97
2018-08-25T02:08:54.352Z,14.80
2018-08-25T02:11:22.506Z,14.20
2018-08-25T02:13:50.677Z,14.57
2018-08-25T02:16:18.833Z,13.80
2018-08-25T02:18:46.989Z,15.70
2018-08-25T02:21:15.191Z,14.00
2018-08-25T02:23:43.716Z,13.93
2018-08-25T02:26:11.861Z,13.20
2018-08-25T02:28:40.027Z,14.73
2018-08-25T02:31:08.229Z,13.90
2018-08-25T02:33:36.395Z,13.40
2018-08-25T02:36:04.585Z,12.97
2018-08-25T02:38:32.754Z,13.17
2018-08-25T02:41:00.916Z,12.70
2018-08-25T02:43:29.068Z,12.70
2018-08-25T02:45:57.248Z,12.57
2018-08-25T02:48:25.400Z,12.53
2018-08-25T02:50:53.596Z,12.17
2018-08-25T02:53:21.752Z,12.30
2018-08-25T02:55:50.116Z,11.90
2018-08-25T02:58:18.420Z,14.80
2018-08-25T03:00:46.582Z,16.30
2018-08-25T03:03:14.739Z,11.77
2018-08-25T03:05:42.927Z,11.90
2018-08-25T03:08:11.408Z,11.43
2018-08-25T03:10:39.604Z,11.70
2018-08-25T03:13:07.963Z,11.47
2018-08-25T03:15:36.195Z,10.57
2018-08-25T03:18:04.408Z,11.53
2018-08-25T03:20:32.692Z,12.27
2018-08-25T03:23:00.861Z,12.03
2018-08-25T03:25:29.032Z,11.17
2018-08-25T03:27:57.865Z,12.10
2018-08-25T03:30:26.021Z,11.40
2018-08-25T03:32:54.202Z,12.20
2018-08-25T03:35:22.395Z,11.43
2018-08-25T03:37:50.556Z,11.90
2018-08-25T03:40:18.721Z,12.30
2018-08-25T03:42:46.941Z,11.30
2018-08-25T03:45:15.143Z,11.60
2018-08-25T03:47:43.304Z,11.27
2018-08-25T03:50:11.477Z,10.93
2018-08-25T03:52:40.469Z,10.13
2018-08-25T03:55:08.639Z,11.27
2018-08-25T03:57:36.803Z,10.53
2018-08-25T04:00:05.724Z,10.97
2018-08-25T04:02:33.882Z,10.27
2018-08-25T04:05:02.292Z,10.37
2018-08-25T04:07:30.449Z,10.83
2018-08-25T04:09:58.632Z,11.07
2018-08-25T04:12:26.846Z,11.37
2018-08-25T04:14:55.125Z,10.93
2018-08-25T04:17:23.256Z,9.80
2018-08-25T04:19:51.448Z,10.10
2018-08-25T04:22:19.715Z,10.57
2018-08-25T04:24:47.817Z,10.37
2018-08-25T04:27:15.981Z,10.00
2018-08-25T04:29:44.145Z,10.63
2018-08-25T04:32:12.317Z,10.00
2018-08-25T04:34:40.481Z,9.97
2018-08-25T04:37:08.662Z,11.87
2018-08-25T04:39:37.125Z,10.67
2018-08-25T04:42:05.419Z,9.80
2018-08-25T04:44:33.571Z,9.90
2018-08-25T04:47:02.209Z,8.97
2018-08-25T04:49:30.377Z,10.13
2018-08-25T04:51:58.549Z,9.53
2018-08-25T04:54:26.712Z,9.90
2018-08-25T04:56:54.922Z,10.40
2018-08-25T04:59:23.085Z,10.33
2018-08-25T05:01:51.295Z,8.97
2018-08-25T05:04:19.716Z,8.93
2018-08-25T05:06:47.902Z,9.60
2018-08-25T05:09:16.331Z,10.20
2018-08-25T05:11:44.834Z,9.53
2018-08-25T05:14:13.243Z,9.43
2018-08-25T05:16:41.412Z,9.83
2018-08-25T05:19:09.602Z,8.43
2018-08-25T05:21:37.764Z,9.60
2018-08-25T05:24:05.964Z,8.53
2018-08-25T05:26:34.395Z,9.07
2018-08-25T05:29:02.554Z,9.07
2018-08-25T05:31:30.712Z,8.60
2018-08-25T05:33:59.225Z,9.73
2018-08-25T05:36:27.705Z,9.40
2018-08-25T05:38:55.857Z,9.47
2018-08-25T05:41:24.016Z,9.40
2018-08-25T05:43:52.165Z,8.87
2018-08-25T05:46:20.586Z,10.23
2018-08-25T05:48:48.761Z,9.17
2018-08-25T05:51:16.931Z,10.30
2018-08-25T05:53:45.093Z,8.97
2018-08-25T05:56:13.545Z,8.53
2018-08-25T05:58:41.705Z,9.33
2018-08-25T06:01:09.978Z,9.30
2018-08-25T06:03:38.777Z,8.53
2018-08-25T06:06:06.957Z,8.83
2018-08-25T06:08:35.193Z,8.50
2018-08-25T06:11:03.373Z,8.73
2018-08-25T06:13:31.638Z,9.73
2018-08-25T06:15:59.704Z,8.07
2018-08-25T06:18:27.879Z,8.40
2018-08-25T06:20:56.041Z,8.00
2018-08-25T06:23:24.198Z,7.87
2018-08-25T06:25:52.658Z,8.10
2018-08-25T06:28:20.814Z,8.90
2018-08-25T06:30:48.970Z,7.67
2018-08-25T06:33:17.188Z,8.20
2018-08-25T06:35:45.332Z,7.63
2018-08-25T06:38:13.767Z,8.03
2018-08-25T06:40:41.930Z,8.10
2018-08-25T06:43:10.217Z,8.47
2018-08-25T06:45:38.365Z,7.93
2018-08-25T06:48:06.543Z,7.37
2018-08-25T06:50:34.748Z,7.63
2018-08-25T06:53:02.899Z,7.50
2018-08-25T06:55:31.075Z,7.50
2018-08-25T06:57:59.529Z,7.23
2018-08-25T07:00:27.960Z,5.90
2018-08-25T07:02:56.133Z,7.30
2018-08-25T07:05:24.597Z,6.43
2018-08-25T07:07:52.780Z,6.43
2018-08-25T07:10:20.958Z,6.57
2018-08-25T07:12:49.210Z,6.63
2018-08-25T07:15:17.396Z,6.70
2018-08-25T07:17:45.568Z,6.70
2018-08-25T07:20:13.728Z,6.20
2018-08-25T07:22:42.320Z,5.30
2018-08-25T07:25:10.496Z,5.03
2018-08-25T07:27:38.914Z,5.30
2018-08-25T07:30:07.066Z,6.47
2018-08-25T07:32:35.238Z,6.27
2018-08-25T07:35:03.442Z,5.20
2018-08-25T07:37:31.625Z,8.57
2018-08-25T07:40:00.007Z,7.90
2018-08-25T07:42:28.198Z,5.60
2018-08-25T07:44:56.394Z,6.30
2018-08-25T07:47:24.890Z,6.20
2018-08-25T07:49:53.165Z,5.60
2018-08-25T07:52:21.345Z,5.00
2018-08-25T07:54:49.569Z,5.50
2018-08-25T07:57:17.734Z,5.77
2018-08-25T07:59:46.130Z,5.13
2018-08-25T08:02:14.289Z,5.00
2018-08-25T08:04:43.021Z,5.80
2018-08-25T08:07:11.249Z,6.20
2018-08-25T08:09:39.574Z,5.00
2018-08-25T08:12:08.092Z,4.80
2018-08-25T08:14:36.251Z,4.17
2018-08-25T08:17:04.892Z,4.23
2018-08-25T08:19:33.053Z,4.27
2018-08-25T08:22:01.242Z,10.33
2018-08-25T08:24:29.421Z,3.33
2018-08-25T08:26:57.600Z,7.23
2018-08-25T08:29:25.764Z,3.43
2018-08-25T08:31:53.950Z,2.70
2018-08-25T08:34:22.118Z,3.27
2018-08-25T08:36:50.342Z,3.23
2018-08-25T08:39:18.519Z,3.00
2018-08-25T08:41:46.673Z,2.90
2018-08-25T08:44:14.860Z,3.60
2018-08-25T08:46:43.041Z,2.97
2018-08-25T08:49:11.201Z,3.63
2018-08-25T08:51:39.369Z,3.30
2018-08-25T08:54:07.545Z,3.40
2018-08-25T08:56:35.705Z,3.20
2018-08-25T08:59:03.862Z,3.50
2018-08-25T09:01:33.073Z,3.40
2018-08-25T09:04:01.233Z,3.80
2018-08-25T09:06:29.389Z,3.70
2018-08-25T09:08:57.566Z,3.73
2018-08-25T09:11:25.772Z,3.73
2018-08-25T09:13:53.897Z,4.20
2018-08-25T09:16:22.117Z,3.63
2018-08-25T09:18:50.486Z,3.57
2018-08-25T09:21:19.649Z,4.63
2018-08-25T09:23:47.849Z,4.50
2018-08-25T09:26:16.021Z,7.03
2018-08-25T09:28:44.182Z,25.50
2018-08-25T09:31:12.352Z,7.90
2018-08-25T09:33:40.513Z,15.83
2018-08-25T09:36:08.681Z,3.70
2018-08-25T09:38:36.833Z,4.23
2018-08-25T09:41:05.022Z,4.40
2018-08-25T09:43:33.178Z,4.97
2018-08-25T09:46:01.363Z,4.57
2018-08-25T09:48:29.534Z,4.33
2018-08-25T09:50:57.996Z,5.20
2018-08-25T09:53:26.184Z,6.93
2018-08-25T09:55:54.682Z,5.60
2018-08-25T09:58:22.869Z,4.87
2018-08-25T10:00:56.290Z,4.37
2018-08-25T10:03:24.728Z,5.20
2018-08-25T10:05:53.201Z,4.78
2018-08-25T10:08:21.480Z,4.87
2018-08-25T10:10:49.640Z,5.23
2018-08-25T10:13:17.861Z,5.40
2018-08-25T10:15:46.327Z,5.23
2018-08-25T10:18:14.490Z,4.40
2018-08-25T10:20:43.069Z,4.90
2018-08-25T10:23:11.520Z,4.33
2018-08-25T10:25:39.669Z,4.47
2018-08-25T10:28:07.859Z,4.40
2018-08-25T10:30:36.068Z,3.77
2018-08-25T10:33:04.249Z,4.27
2018-08-25T10:35:33.003Z,4.27
2018-08-25T10:38:01.145Z,5.47
2018-08-25T10:40:29.612Z,4.60
2018-08-25T10:42:57.826Z,4.30
2018-08-25T10:45:26.076Z,4.40
2018-08-25T10:47:54.233Z,3.97
2018-08-25T10:50:22.372Z,3.57
2018-08-25T10:52:50.534Z,4.40
2018-08-25T10:55:19.042Z,4.40
2018-08-25T10:57:47.194Z,4.13
2018-08-25T11:00:15.440Z,3.30
2018-08-25T11:02:43.535Z,3.50
2018-08-25T11:05:11.707Z,3.77
2018-08-25T11:07:39.997Z,3.67
2018-08-25T11:10:08.158Z,4.43
2018-08-25T11:12:36.317Z,3.70
2018-08-25T11:15:04.711Z,3.67
2018-08-25T11:17:32.897Z,3.23
2018-08-25T11:20:01.088Z,3.27
2018-08-25T11:22:29.375Z,4.00
2018-08-25T11:24:57.625Z,3.40
2018-08-25T11:27:25.896Z,3.30
2018-08-25T11:29:54.499Z,2.93
2018-08-25T11:32:22.672Z,3.73
2018-08-25T11:34:51.024Z,3.00
2018-08-25T11:37:19.329Z,3.03
2018-08-25T11:39:47.436Z,3.50
2018-08-25T11:42:15.698Z,5.57
2018-08-25T11:44:44.298Z,12.47
2018-08-25T11:47:15.896Z,8.60
2018-08-25T11:49:44.979Z,3.93
2018-08-25T11:52:13.147Z,2.97
2018-08-25T11:54:41.337Z,3.07
2018-08-25T11:57:09.535Z,3.67
2018-08-25T11:59:37.843Z,3.63
2018-08-25T12:02:06.120Z,3.40
2018-08-25T12:04:34.239Z,4.33
2018-08-25T12:07:02.517Z,3.30
2018-08-25T12:09:30.780Z,2.50
2018-08-25T12:11:58.932Z,2.93
2018-08-25T12:14:27.089Z,3.07
2018-08-25T12:16:55.293Z,2.53
2018-08-25T12:19:24.311Z,3.10
2018-08-25T12:21:52.487Z,3.40
2018-08-25T12:24:20.653Z,3.23
2018-08-25T12:26:49.233Z,3.00
2018-08-25T12:29:17.506Z,2.90
2018-08-25T12:31:46.493Z,3.30
2018-08-25T12:34:14.725Z,3.27
2018-08-25T12:36:43.219Z,4.17
2018-08-25T12:39:12.027Z,36.90
2018-08-25T12:41:40.433Z,4.37
2018-08-25T12:44:08.635Z,3.40
2018-08-25T12:46:36.803Z,4.37
2018-08-25T12:49:05.087Z,3.40
2018-08-25T12:51:33.299Z,3.10
2018-08-25T12:54:01.428Z,3.50
2018-08-25T12:56:29.652Z,3.90
2018-08-25T12:58:57.814Z,3.97
2018-08-25T13:01:26.082Z,3.23
2018-08-25T13:03:54.338Z,3.83
2018-08-25T13:06:22.815Z,3.03
2018-08-25T13:08:51.034Z,3.60
2018-08-25T13:11:19.236Z,3.17
2018-08-25T13:13:47.427Z,3.10
2018-08-25T13:16:15.577Z,4.03
2018-08-25T13:18:44.619Z,4.17
2018-08-25T13:21:12.754Z,3.27
2018-08-25T13:23:41.229Z,4.43
2018-08-25T13:26:09.453Z,3.37
2018-08-25T13:28:37.673Z,3.80
2018-08-25T13:31:06.089Z,3.87
2018-08-25T13:33:34.109Z,3.90
2018-08-25T13:36:02.297Z,7.83
2018-08-25T13:38:30.473Z,3.30
2018-08-25T13:40:58.665Z,2.50
2018-08-25T13:43:26.877Z,3.73
2018-08-25T13:45:55.185Z,2.73
2018-08-25T13:48:23.363Z,3.40
2018-08-25T13:50:51.545Z,3.63
2018-08-25T13:53:19.725Z,3.20
2018-08-25T13:55:48.245Z,2.93
2018-08-25T13:58:16.804Z,8.13
2018-08-25T14:00:44.945Z,3.40
2018-08-25T14:03:13.179Z,4.73
2018-08-25T14:05:41.335Z,2.60
2018-08-25T14:08:09.565Z,2.43
2018-08-25T14:10:37.680Z,2.60
2018-08-25T14:13:06.184Z,2.93
2018-08-25T14:15:34.320Z,2.50
2018-08-25T14:18:02.492Z,2.30
2018-08-25T14:20:30.712Z,2.20
2018-08-25T14:22:59.360Z,1.73
2018-08-25T14:25:27.672Z,2.60
2018-08-25T14:27:55.814Z,2.20
2018-08-25T14:30:24.059Z,2.37
2018-08-25T14:32:52.250Z,2.20
2018-08-25T14:35:20.430Z,2.00
2018-08-25T14:37:48.650Z,2.30
2018-08-25T14:40:16.878Z,3.03
2018-08-25T14:42:45.101Z,2.27
2018-08-25T14:45:13.313Z,1.90
2018-08-25T14:47:41.666Z,1.50
2018-08-25T14:50:09.837Z,1.80
2018-08-25T14:52:38.031Z,2.40
2018-08-25T14:55:06.281Z,2.20
2018-08-25T14:57:34.569Z,1.97
2018-08-25T15:00:02.801Z,2.17
2018-08-25T15:02:30.992Z,2.00
2018-08-25T15:04:59.149Z,1.67
2018-08-25T15:07:27.369Z,1.70
2018-08-25T15:09:55.568Z,2.37
2018-08-25T15:12:23.864Z,2.03
2018-08-25T15:14:52.020Z,2.60
2018-08-25T15:17:20.224Z,1.97
2018-08-25T15:19:48.726Z,2.60
2018-08-25T15:22:16.904Z,1.90
2018-08-25T15:24:45.370Z,2.33
2018-08-25T15:27:13.674Z,2.20
2018-08-25T15:29:41.778Z,1.60
2018-08-25T15:32:09.958Z,2.07
2018-08-25T15:34:38.218Z,2.07
2018-08-25T15:37:06.430Z,2.03
2018-08-25T15:39:34.653Z,2.00
2018-08-25T15:42:02.966Z,1.70
2018-08-25T15:44:31.230Z,2.57
2018-08-25T15:46:59.445Z,2.90
2018-08-25T15:49:27.897Z,2.50
2018-08-25T15:51:56.269Z,2.37
2018-08-25T15:54:24.333Z,1.80
2018-08-25T15:56:52.537Z,2.50
2018-08-25T15:59:20.727Z,2.13
2018-08-25T16:01:48.950Z,2.17
2018-08-25T16:04:17.698Z,1.83
2018-08-25T16:06:46.507Z,1.63
2018-08-25T16:09:15.636Z,1.77
2018-08-25T16:11:44.013Z,1.80
2018-08-25T16:14:12.490Z,2.03
2018-08-25T16:16:40.752Z,1.63
2018-08-25T16:19:08.957Z,1.60
2018-08-25T16:21:37.416Z,1.30
2018-08-25T16:24:05.663Z,1.90
2018-08-25T16:26:33.908Z,1.67
2018-08-25T16:29:02.106Z,1.83
2018-08-25T16:31:30.341Z,1.80
2018-08-25T16:33:58.556Z,1.80
2018-08-25T16:36:26.814Z,1.73
2018-08-25T16:38:55.076Z,2.00
2018-08-25T16:41:23.334Z,1.37
2018-08-25T16:43:51.590Z,1.90
2018-08-25T16:46:19.863Z,1.90
2018-08-25T16:48:48.028Z,1.30
2018-08-25T16:51:16.733Z,1.70
2018-08-25T16:53:44.983Z,2.10
2018-08-25T16:56:13.393Z,1.90
2018-08-25T16:58:41.601Z,1.70
2018-08-25T17:01:09.899Z,1.77
2018-08-25T17:03:38.113Z,2.70
2018-08-25T17:06:06.309Z,1.77
2018-08-25T17:08:34.633Z,2.20
2018-08-25T17:11:02.897Z,2.00
2018-08-25T17:13:31.115Z,2.03
2018-08-25T17:15:59.377Z,2.07
2018-08-25T17:18:27.611Z,1.70
2018-08-25T17:20:55.829Z,1.97
2018-08-25T17:23:24.699Z,1.53
2018-08-25T17:25:52.916Z,1.70
2018-08-25T17:28:21.064Z,2.13
2018-08-25T17:30:49.278Z,8.87
2018-08-25T17:33:17.475Z,2.67
2018-08-25T17:35:45.636Z,2.20
2018-08-25T17:38:13.847Z,1.90
2018-08-25T17:40:42.594Z,1.87
2018-08-25T17:43:11.970Z,2.20
2018-08-25T17:45:40.242Z,2.47
2018-08-25T17:48:08.525Z,2.37
2018-08-25T17:50:36.742Z,2.20
2018-08-25T17:53:05.020Z,2.30
2018-08-25T17:55:33.300Z,2.40
2018-08-25T17:58:01.474Z,1.63
2018-08-25T18:00:29.666Z,4.20
2018-08-25T18:02:57.879Z,2.03
2018-08-25T18:05:26.073Z,2.80
2018-08-25T18:07:54.266Z,2.40
2018-08-25T18:10:22.453Z,2.10
2018-08-25T18:12:50.637Z,1.70
2018-08-25T18:15:18.841Z,1.73
2018-08-25T18:17:47.011Z,2.13
2018-08-25T18:20:15.253Z,2.63
2018-08-25T18:22:43.585Z,2.50
2018-08-25T18:25:11.757Z,2.27
2018-08-25T18:27:40.037Z,2.27
2018-08-25T18:30:08.502Z,2.93
2018-08-25T18:32:36.806Z,2.77
2018-08-25T18:35:05.073Z,3.30
2018-08-25T18:37:33.314Z,2.83
2018-08-25T18:40:01.594Z,3.30
2018-08-25T18:42:29.754Z,4.73
2018-08-25T18:44:57.966Z,2.37
2018-08-25T18:47:26.488Z,2.93
2018-08-25T18:49:54.734Z,55.50
2018-08-25T18:52:22.978Z,3.93
2018-08-25T18:54:51.249Z,2.73
2018-08-25T18:57:19.327Z,3.33
2018-08-25T18:59:47.555Z,2.67
2018-08-25T19:02:15.943Z,3.30
2018-08-25T19:04:44.064Z,3.07
2018-08-25T19:07:12.357Z,2.80
2018-08-25T19:09:40.509Z,3.47
2018-08-25T19:12:08.825Z,2.23
2018-08-25T19:14:37.022Z,2.23
2018-08-25T19:17:05.339Z,2.63
2018-08-25T19:19:33.601Z,2.50
2018-08-25T19:22:01.842Z,2.47
2018-08-25T19:24:30.083Z,3.00
2018-08-25T19:26:58.509Z,2.77
2018-08-25T19:29:27.848Z,2.67
2018-08-25T19:31:56.051Z,2.50
2018-08-25T19:34:24.228Z,2.50
2018-08-25T19:36:52.507Z,2.20
2018-08-25T19:39:20.689Z,10.07
2018-08-25T19:41:48.877Z,5.47
2018-08-25T19:44:17.081Z,2.60
2018-08-25T19:46:45.241Z,2.75
2018-08-25T19:49:13.440Z,12.53
2018-08-25T19:51:42.620Z,2.90
2018-08-25T19:54:10.868Z,2.53
2018-08-25T19:56:39.102Z,2.63
2018-08-25T19:59:07.314Z,3.13
2018-08-25T20:01:35.536Z,2.50
2018-08-25T20:04:03.714Z,2.90
2018-08-25T20:06:31.894Z,3.20
2018-08-25T20:09:00.056Z,5.30
2018-08-25T20:11:28.254Z,5.80
2018-08-25T20:13:56.421Z,3.97
2018-08-25T20:16:24.565Z,4.67
2018-08-25T20:18:52.717Z,2.67
2018-08-25T20:21:20.949Z,2.70
2018-08-25T20:23:49.112Z,2.87
2018-08-25T20:26:17.304Z,3.10
2018-08-25T20:28:45.505Z,2.40
2018-08-25T20:31:13.681Z,3.07
2018-08-25T20:33:42.175Z,2.87
2018-08-25T20:36:10.379Z,3.07
2018-08-25T20:38:38.560Z,2.93
2018-08-25T20:41:06.762Z,3.10
2018-08-25T20:43:35.053Z,3.50
2018-08-25T20:46:03.287Z,2.87
2018-08-25T20:48:31.391Z,3.20
2018-08-25T20:50:59.589Z,3.20
2018-08-25T20:53:28.100Z,3.40
2018-08-25T20:55:56.745Z,3.20
2018-08-25T20:58:24.942Z,3.37
2018-08-25T21:00:53.203Z,3.10
2018-08-25T21:03:21.330Z,3.40
2018-08-25T21:05:49.540Z,3.90
2018-08-25T21:08:17.714Z,3.00
2018-08-25T21:10:45.878Z,3.20
2018-08-25T21:13:14.060Z,2.90
2018-08-25T21:15:42.235Z,3.37
2018-08-25T21:18:10.444Z,2.97
2018-08-25T21:20:38.630Z,3.00
2018-08-25T21:23:06.794Z,3.33
2018-08-25T21:25:35.230Z,3.10
2018-08-25T21:28:03.426Z,3.60
2018-08-25T21:30:31.589Z,3.30
2018-08-25T21:33:00.055Z,3.37
2018-08-25T21:35:28.246Z,3.45
2018-08-25T21:37:56.430Z,3.07
2018-08-25T21:40:24.581Z,3.17
2018-08-25T21:42:53.064Z,3.00
2018-08-25T21:45:21.218Z,3.20
2018-08-25T21:47:49.401Z,3.27
2018-08-25T21:50:17.920Z,3.27
2018-08-25T21:52:46.100Z,3.63
2018-08-25T21:55:14.476Z,4.03
2018-08-25T21:57:42.884Z,4.13
2018-08-25T22:00:11.136Z,4.37
2018-08-25T22:02:39.440Z,4.27
2018-08-25T22:05:07.884Z,4.90
2018-08-25T22:07:36.138Z,5.10
2018-08-25T22:10:04.544Z,4.80
2018-08-25T22:12:32.778Z,5.20
2018-08-25T22:15:00.942Z,5.53
2018-08-25T22:17:29.476Z,4.90
2018-08-25T22:19:57.914Z,5.33
2018-08-25T22:22:26.092Z,5.03
2018-08-25T22:24:54.509Z,5.37
2018-08-25T22:27:22.694Z,5.80
2018-08-25T22:29:50.879Z,6.70
2018-08-25T22:32:19.133Z,5.67
2018-08-25T22:34:47.337Z,5.60
2018-08-25T22:37:15.551Z,6.40
2018-08-25T22:39:43.690Z,6.30
2018-08-25T22:42:11.856Z,6.60
2018-08-25T22:44:40.071Z,6.43
2018-08-25T22:47:08.277Z,6.67
2018-08-25T22:49:36.465Z,5.90
2018-08-25T22:52:04.661Z,6.53
2018-08-25T22:54:33.105Z,5.90
2018-08-25T22:57:01.285Z,6.50
2018-08-25T22:59:29.564Z,6.00
2018-08-25T23:01:57.781Z,6.00
2018-08-25T23:04:25.988Z,6.40
2018-08-25T23:06:54.461Z,6.60
2018-08-25T23:09:22.622Z,5.77
2018-08-25T23:11:50.883Z,5.53
2018-08-25T23:14:19.086Z,5.37
2018-08-25T23:16:47.276Z,5.85
2018-08-25T23:19:15.440Z,5.50
2018-08-25T23:21:43.590Z,5.63
2018-08-25T23:24:11.794Z,5.47
2018-08-25T23:26:39.985Z,4.70
2018-08-25T23:29:08.136Z,5.07
2018-08-25T23:31:36.305Z,4.97
2018-08-25T23:34:04.506Z,6.10
2018-08-25T23:36:32.854Z,5.53
2018-08-25T23:39:01.059Z,6.00
2018-08-25T23:41:29.294Z,4.73
2018-08-25T23:43:57.475Z,4.40
2018-08-25T23:46:25.784Z,5.00
2018-08-25T23:48:53.951Z,5.20
2018-08-25T23:51:22.117Z,5.10
2018-08-25T23:53:50.305Z,4.43
2018-08-25T23:56:18.518Z,5.57
2018-08-25T23:58:46.737Z,4.43
